sensor_id;sensor_type;location;lat;lon;timestamp;temperature;humidity
6520;DHT22;3293;51.690;5.982;2023-02-28T00:00:37;-1.00;99.90
6520;DHT22;3293;51.690;5.982;2023-02-28T00:05:38;-1.00;99.90
6520;DHT22;3293;51.690;5.982;2023-02-28T00:10:38;-1.10;99.90
6520;DHT22;3293;51.690;5.982;2023-02-28T00:15:38;-1.20;99.90
6520;DHT22;3293;51.690;5.982;2023-02-28T00:20:39;-1.30;99.90
6520;DHT22;3293;51.690;5.982;2023-02-28T00:25:39;-1.30;99.90
6520;DHT22;3293;51.690;5.982;2023-02-28T00:30:39;-1.40;99.90
6520;DHT22;3293;51.690;5.982;2023-02-28T00:35:39;-1.40;99.90
6520;DHT22;3293;51.690;5.982;2023-02-28T00:40:39;-1.50;99.90
6520;DHT22;3293;51.690;5.982;2023-02-28T00:45:39;-1.50;99.90
6520;DHT22;3293;51.690;5.982;2023-02-28T00:50:39;-1.50;99.90
6520;DHT22;3293;51.690;5.982;2023-02-28T00:55:39;-1.40;99.90
6520;DHT22;3293;51.690;5.982;2023-02-28T01:00:39;-1.40;99.90
6520;DHT22;3293;51.690;5.982;2023-02-28T01:05:39;-1.20;99.90
6520;DHT22;3293;51.690;5.982;2023-02-28T01:10:41;-1.00;99.90
6520;DHT22;3293;51.690;5.982;2023-02-28T01:15:45;-0.90;99.90
6520;DHT22;3293;51.690;5.982;2023-02-28T01:20:45;-0.80;99.90
6520;DHT22;3293;51.690;5.982;2023-02-28T01:25:45;-0.70;99.90
6520;DHT22;3293;51.690;5.982;2023-02-28T01:30:50;-0.50;99.90
6520;DHT22;3293;51.690;5.982;2023-02-28T01:36:00;-0.50;99.90
6520;DHT22;3293;51.690;5.982;2023-02-28T01:41:01;-0.50;99.90
6520;DHT22;3293;51.690;5.982;2023-02-28T01:46:01;-0.40;99.90
6520;DHT22;3293;51.690;5.982;2023-02-28T01:51:05;-0.40;99.90
6520;DHT22;3293;51.690;5.982;2023-02-28T01:56:10;-0.30;99.90
6520;DHT22;3293;51.690;5.982;2023-02-28T02:01:11;-0.20;99.90
6520;DHT22;3293;51.690;5.982;2023-02-28T02:06:29;-0.20;99.90
6520;DHT22;3293;51.690;5.982;2023-02-28T02:11:30;-0.20;99.90
6520;DHT22;3293;51.690;5.982;2023-02-28T02:17:01;-0.10;99.90
6520;DHT22;3293;51.690;5.982;2023-02-28T02:27:34;0.00;99.90
6520;DHT22;3293;51.690;5.982;2023-02-28T02:38:13;0.30;99.90
6520;DHT22;3293;51.690;5.982;2023-02-28T02:43:20;0.40;99.90
6520;DHT22;3293;51.690;5.982;2023-02-28T02:48:25;0.50;99.90
6520;DHT22;3293;51.690;5.982;2023-02-28T02:53:38;0.70;99.90
6520;DHT22;3293;51.690;5.982;2023-02-28T02:58:41;0.80;99.90
6520;DHT22;3293;51.690;5.982;2023-02-28T03:03:44;0.80;99.90
6520;DHT22;3293;51.690;5.982;2023-02-28T03:08:44;0.80;99.90
6520;DHT22;3293;51.690;5.982;2023-02-28T03:24:12;0.90;99.90
6520;DHT22;3293;51.690;5.982;2023-02-28T03:29:34;0.90;99.90
6520;DHT22;3293;51.690;5.982;2023-02-28T03:34:39;0.90;99.90
6520;DHT22;3293;51.690;5.982;2023-02-28T03:39:44;0.90;99.90
6520;DHT22;3293;51.690;5.982;2023-02-28T03:44:51;0.90;99.90
6520;DHT22;3293;51.690;5.982;2023-02-28T03:55:10;1.00;99.90
6520;DHT22;3293;51.690;5.982;2023-02-28T04:00:20;1.00;99.90
6520;DHT22;3293;51.690;5.982;2023-02-28T04:05:21;0.90;99.90
6520;DHT22;3293;51.690;5.982;2023-02-28T04:10:21;1.00;99.90
6520;DHT22;3293;51.690;5.982;2023-02-28T04:15:22;1.00;99.90
6520;DHT22;3293;51.690;5.982;2023-02-28T04:20:24;1.10;99.90
6520;DHT22;3293;51.690;5.982;2023-02-28T04:25:24;1.00;99.90
6520;DHT22;3293;51.690;5.982;2023-02-28T04:30:24;1.00;99.90
6520;DHT22;3293;51.690;5.982;2023-02-28T04:35:24;1.00;99.90
6520;DHT22;3293;51.690;5.982;2023-02-28T04:40:24;1.00;99.90
6520;DHT22;3293;51.690;5.982;2023-02-28T04:45:24;1.10;99.90
6520;DHT22;3293;51.690;5.982;2023-02-28T04:50:24;1.00;99.90
6520;DHT22;3293;51.690;5.982;2023-02-28T04:55:24;1.00;99.90
6520;DHT22;3293;51.690;5.982;2023-02-28T05:00:24;1.00;99.90
6520;DHT22;3293;51.690;5.982;2023-02-28T05:05:24;1.00;99.90
6520;DHT22;3293;51.690;5.982;2023-02-28T05:10:25;1.00;99.90
6520;DHT22;3293;51.690;5.982;2023-02-28T05:15:25;0.90;99.90
6520;DHT22;3293;51.690;5.982;2023-02-28T05:20:25;0.90;99.90
6520;DHT22;3293;51.690;5.982;2023-02-28T05:25:25;0.80;99.90
6520;DHT22;3293;51.690;5.982;2023-02-28T05:30:25;0.80;99.90
6520;DHT22;3293;51.690;5.982;2023-02-28T05:35:25;0.90;99.90
6520;DHT22;3293;51.690;5.982;2023-02-28T05:40:25;0.90;99.90
6520;DHT22;3293;51.690;5.982;2023-02-28T05:45:25;0.90;99.90
6520;DHT22;3293;51.690;5.982;2023-02-28T05:50:25;1.00;99.90
6520;DHT22;3293;51.690;5.982;2023-02-28T05:55:25;1.00;99.90
6520;DHT22;3293;51.690;5.982;2023-02-28T06:00:25;0.90;99.90
6520;DHT22;3293;51.690;5.982;2023-02-28T06:05:25;0.90;99.90
6520;DHT22;3293;51.690;5.982;2023-02-28T06:10:25;0.90;99.90
6520;DHT22;3293;51.690;5.982;2023-02-28T06:15:25;0.90;99.90
6520;DHT22;3293;51.690;5.982;2023-02-28T06:20:26;0.90;99.90
6520;DHT22;3293;51.690;5.982;2023-02-28T06:25:28;0.90;99.90
6520;DHT22;3293;51.690;5.982;2023-02-28T06:30:28;0.80;99.90
6520;DHT22;3293;51.690;5.982;2023-02-28T06:35:29;0.80;99.90
6520;DHT22;3293;51.690;5.982;2023-02-28T06:40:29;0.70;99.90
6520;DHT22;3293;51.690;5.982;2023-02-28T06:45:33;0.60;99.90
6520;DHT22;3293;51.690;5.982;2023-02-28T06:50:33;0.70;99.90
6520;DHT22;3293;51.690;5.982;2023-02-28T06:55:33;0.80;99.90
6520;DHT22;3293;51.690;5.982;2023-02-28T07:00:33;0.90;99.90
6520;DHT22;3293;51.690;5.982;2023-02-28T07:05:37;1.10;99.90
6520;DHT22;3293;51.690;5.982;2023-02-28T07:10:38;1.10;99.90
6520;DHT22;3293;51.690;5.982;2023-02-28T07:15:38;1.10;99.90
6520;DHT22;3293;51.690;5.982;2023-02-28T07:20:38;1.10;99.90
6520;DHT22;3293;51.690;5.982;2023-02-28T07:25:38;1.10;99.90
6520;DHT22;3293;51.690;5.982;2023-02-28T07:30:39;1.10;99.90
6520;DHT22;3293;51.690;5.982;2023-02-28T07:35:39;1.30;99.90
6520;DHT22;3293;51.690;5.982;2023-02-28T07:40:40;1.40;99.90
6520;DHT22;3293;51.690;5.982;2023-02-28T07:45:40;1.60;99.90
6520;DHT22;3293;51.690;5.982;2023-02-28T07:50:40;1.80;99.90
6520;DHT22;3293;51.690;5.982;2023-02-28T07:55:40;1.80;99.90
6520;DHT22;3293;51.690;5.982;2023-02-28T08:00:40;2.00;99.90
6520;DHT22;3293;51.690;5.982;2023-02-28T08:05:40;2.50;99.90
6520;DHT22;3293;51.690;5.982;2023-02-28T08:10:40;3.10;99.90
6520;DHT22;3293;51.690;5.982;2023-02-28T08:15:41;3.50;99.90
6520;DHT22;3293;51.690;5.982;2023-02-28T08:20:42;4.20;97.20
6520;DHT22;3293;51.690;5.982;2023-02-28T08:25:42;4.90;92.10
6520;DHT22;3293;51.690;5.982;2023-02-28T08:30:42;5.10;90.80
6520;DHT22;3293;51.690;5.982;2023-02-28T08:35:42;5.30;79.60
6520;DHT22;3293;51.690;5.982;2023-02-28T08:40:42;5.40;77.90
6520;DHT22;3293;51.690;5.982;2023-02-28T08:45:42;5.10;67.60
6520;DHT22;3293;51.690;5.982;2023-02-28T08:50:42;4.60;73.80
6520;DHT22;3293;51.690;5.982;2023-02-28T08:55:42;4.20;87.60
6520;DHT22;3293;51.690;5.982;2023-02-28T09:00:42;3.80;80.40
6520;DHT22;3293;51.690;5.982;2023-02-28T09:05:55;3.70;78.20
6520;DHT22;3293;51.690;5.982;2023-02-28T09:10:56;3.60;83.80
6520;DHT22;3293;51.690;5.982;2023-02-28T09:15:58;3.50;82.80
6520;DHT22;3293;51.690;5.982;2023-02-28T09:20:58;3.40;92.40
6520;DHT22;3293;51.690;5.982;2023-02-28T09:25:58;3.50;85.60
6520;DHT22;3293;51.690;5.982;2023-02-28T09:30:58;3.60;72.70
6520;DHT22;3293;51.690;5.982;2023-02-28T09:36:02;3.60;72.90
6520;DHT22;3293;51.690;5.982;2023-02-28T09:41:12;3.70;64.60
6520;DHT22;3293;51.690;5.982;2023-02-28T09:46:32;3.80;68.80
6520;DHT22;3293;51.690;5.982;2023-02-28T09:51:39;4.00;59.90
6520;DHT22;3293;51.690;5.982;2023-02-28T09:56:41;4.00;58.40
6520;DHT22;3293;51.690;5.982;2023-02-28T10:12:26;4.20;54.80
6520;DHT22;3293;51.690;5.982;2023-02-28T10:17:36;4.20;52.10
6520;DHT22;3293;51.690;5.982;2023-02-28T10:22:51;4.30;46.10
6520;DHT22;3293;51.690;5.982;2023-02-28T10:27:54;4.20;48.70
6520;DHT22;3293;51.690;5.982;2023-02-28T10:32:58;4.20;55.20
6520;DHT22;3293;51.690;5.982;2023-02-28T10:38:00;4.30;42.70
6520;DHT22;3293;51.690;5.982;2023-02-28T10:58:25;4.60;38.60
6520;DHT22;3293;51.690;5.982;2023-02-28T11:03:35;4.60;41.00
6520;DHT22;3293;51.690;5.982;2023-02-28T11:08:44;4.50;38.60
6520;DHT22;3293;51.690;5.982;2023-02-28T11:13:46;4.50;38.90
6520;DHT22;3293;51.690;5.982;2023-02-28T11:18:48;4.50;44.30
6520;DHT22;3293;51.690;5.982;2023-02-28T11:23:51;4.60;41.20
6520;DHT22;3293;51.690;5.982;2023-02-28T11:29:08;4.80;42.10
6520;DHT22;3293;51.690;5.982;2023-02-28T11:34:30;4.90;45.10
6520;DHT22;3293;51.690;5.982;2023-02-28T11:39:30;4.80;38.00
6520;DHT22;3293;51.690;5.982;2023-02-28T11:55:26;5.00;35.50
6520;DHT22;3293;51.690;5.982;2023-02-28T12:11:14;5.10;38.20
6520;DHT22;3293;51.690;5.982;2023-02-28T12:26:52;5.30;41.70
6520;DHT22;3293;51.690;5.982;2023-02-28T12:36:56;5.20;40.10
6520;DHT22;3293;51.690;5.982;2023-02-28T12:47:24;5.40;34.80
6520;DHT22;3293;51.690;5.982;2023-02-28T13:13:18;5.50;36.50
6520;DHT22;3293;51.690;5.982;2023-02-28T13:18:45;5.60;38.70
6520;DHT22;3293;51.690;5.982;2023-02-28T13:29:32;5.70;36.20
6520;DHT22;3293;51.690;5.982;2023-02-28T13:34:41;5.60;38.90
6520;DHT22;3293;51.690;5.982;2023-02-28T13:39:50;5.60;37.80
6520;DHT22;3293;51.690;5.982;2023-02-28T13:50:32;5.60;37.40
6520;DHT22;3293;51.690;5.982;2023-02-28T14:06:50;5.70;36.80
6520;DHT22;3293;51.690;5.982;2023-02-28T14:11:52;5.80;39.30
6520;DHT22;3293;51.690;5.982;2023-02-28T14:16:52;5.80;37.40
6520;DHT22;3293;51.690;5.982;2023-02-28T14:37:54;5.80;38.80
6520;DHT22;3293;51.690;5.982;2023-02-28T14:42:57;5.80;40.40
6520;DHT22;3293;51.690;5.982;2023-02-28T14:47:58;5.70;40.70
6520;DHT22;3293;51.690;5.982;2023-02-28T14:52:59;5.70;42.60
6520;DHT22;3293;51.690;5.982;2023-02-28T14:58:02;5.70;44.30
6520;DHT22;3293;51.690;5.982;2023-02-28T15:03:38;5.70;42.20
6520;DHT22;3293;51.690;5.982;2023-02-28T15:08:38;5.70;42.90
6520;DHT22;3293;51.690;5.982;2023-02-28T15:13:46;5.80;44.90
6520;DHT22;3293;51.690;5.982;2023-02-28T15:24:39;5.70;43.30
6520;DHT22;3293;51.690;5.982;2023-02-28T15:29:46;5.70;43.20
6520;DHT22;3293;51.690;5.982;2023-02-28T15:34:48;5.60;44.80
6520;DHT22;3293;51.690;5.982;2023-02-28T15:39:48;5.70;46.20
6520;DHT22;3293;51.690;5.982;2023-02-28T15:44:49;5.60;44.10
6520;DHT22;3293;51.690;5.982;2023-02-28T15:49:57;5.60;44.30
6520;DHT22;3293;51.690;5.982;2023-02-28T15:54:58;5.60;44.20
6520;DHT22;3293;51.690;5.982;2023-02-28T16:00:02;5.50;48.50
6520;DHT22;3293;51.690;5.982;2023-02-28T16:10:12;5.30;49.00
6520;DHT22;3293;51.690;5.982;2023-02-28T16:15:24;5.40;51.50
6520;DHT22;3293;51.690;5.982;2023-02-28T16:20:28;5.30;52.10
6520;DHT22;3293;51.690;5.982;2023-02-28T16:25:49;5.30;52.10
6520;DHT22;3293;51.690;5.982;2023-02-28T16:30:51;5.30;50.00
6520;DHT22;3293;51.690;5.982;2023-02-28T16:35:52;5.20;52.20
6520;DHT22;3293;51.690;5.982;2023-02-28T16:40:53;5.10;52.20
6520;DHT22;3293;51.690;5.982;2023-02-28T16:45:56;5.10;55.90
6520;DHT22;3293;51.690;5.982;2023-02-28T16:50:57;4.90;58.00
6520;DHT22;3293;51.690;5.982;2023-02-28T16:55:57;4.80;61.60
6520;DHT22;3293;51.690;5.982;2023-02-28T17:00:57;4.80;59.80
6520;DHT22;3293;51.690;5.982;2023-02-28T17:05:57;4.70;64.20
6520;DHT22;3293;51.690;5.982;2023-02-28T17:10:58;4.50;64.80
6520;DHT22;3293;51.690;5.982;2023-02-28T17:15:58;4.40;68.80
6520;DHT22;3293;51.690;5.982;2023-02-28T17:20:59;4.30;71.30
6520;DHT22;3293;51.690;5.982;2023-02-28T17:25:59;4.20;70.40
6520;DHT22;3293;51.690;5.982;2023-02-28T17:30:59;3.90;75.80
6520;DHT22;3293;51.690;5.982;2023-02-28T17:35:59;3.80;78.70
6520;DHT22;3293;51.690;5.982;2023-02-28T17:40:59;3.80;87.90
6520;DHT22;3293;51.690;5.982;2023-02-28T17:45:59;3.60;84.30
6520;DHT22;3293;51.690;5.982;2023-02-28T17:50:59;3.50;86.90
6520;DHT22;3293;51.690;5.982;2023-02-28T17:55:59;3.30;90.90
6520;DHT22;3293;51.690;5.982;2023-02-28T18:00:59;3.10;92.20
6520;DHT22;3293;51.690;5.982;2023-02-28T18:05:59;3.00;93.30
6520;DHT22;3293;51.690;5.982;2023-02-28T18:10:59;2.80;96.20
6520;DHT22;3293;51.690;5.982;2023-02-28T18:15:59;2.70;98.20
6520;DHT22;3293;51.690;5.982;2023-02-28T18:20:59;2.60;98.40
6520;DHT22;3293;51.690;5.982;2023-02-28T18:26:00;2.50;98.70
6520;DHT22;3293;51.690;5.982;2023-02-28T18:31:07;2.50;99.90
6520;DHT22;3293;51.690;5.982;2023-02-28T18:36:08;2.50;99.90
6520;DHT22;3293;51.690;5.982;2023-02-28T18:41:08;2.40;99.90
6520;DHT22;3293;51.690;5.982;2023-02-28T18:46:10;2.30;99.90
6520;DHT22;3293;51.690;5.982;2023-02-28T18:51:13;2.10;99.90
6520;DHT22;3293;51.690;5.982;2023-02-28T18:56:15;1.90;99.90
6520;DHT22;3293;51.690;5.982;2023-02-28T19:01:25;1.70;99.90
6520;DHT22;3293;51.690;5.982;2023-02-28T19:06:31;1.60;99.90
6520;DHT22;3293;51.690;5.982;2023-02-28T19:11:31;1.60;99.90
6520;DHT22;3293;51.690;5.982;2023-02-28T19:16:32;1.60;99.90
6520;DHT22;3293;51.690;5.982;2023-02-28T19:21:32;1.40;99.90
6520;DHT22;3293;51.690;5.982;2023-02-28T19:26:35;1.30;99.90
6520;DHT22;3293;51.690;5.982;2023-02-28T19:31:35;1.30;99.90
6520;DHT22;3293;51.690;5.982;2023-02-28T19:36:35;1.20;99.90
6520;DHT22;3293;51.690;5.982;2023-02-28T19:41:35;1.20;99.90
6520;DHT22;3293;51.690;5.982;2023-02-28T19:46:35;1.00;99.90
6520;DHT22;3293;51.690;5.982;2023-02-28T19:51:36;0.90;99.90
6520;DHT22;3293;51.690;5.982;2023-02-28T19:56:36;0.90;99.90
6520;DHT22;3293;51.690;5.982;2023-02-28T20:01:36;0.70;99.90
6520;DHT22;3293;51.690;5.982;2023-02-28T20:06:37;0.70;99.90
6520;DHT22;3293;51.690;5.982;2023-02-28T20:11:37;0.60;99.90
6520;DHT22;3293;51.690;5.982;2023-02-28T20:16:38;0.40;99.90
6520;DHT22;3293;51.690;5.982;2023-02-28T20:21:38;0.40;99.90
6520;DHT22;3293;51.690;5.982;2023-02-28T20:26:40;0.30;99.90
6520;DHT22;3293;51.690;5.982;2023-02-28T20:31:40;0.30;99.90
6520;DHT22;3293;51.690;5.982;2023-02-28T20:36:40;0.20;99.90
6520;DHT22;3293;51.690;5.982;2023-02-28T20:41:40;0.10;99.90
6520;DHT22;3293;51.690;5.982;2023-02-28T20:46:40;0.00;99.90
6520;DHT22;3293;51.690;5.982;2023-02-28T20:51:41;-0.10;99.90
6520;DHT22;3293;51.690;5.982;2023-02-28T20:56:42;-0.20;99.90
6520;DHT22;3293;51.690;5.982;2023-02-28T21:01:41;-0.40;99.90
6520;DHT22;3293;51.690;5.982;2023-02-28T21:06:42;-0.50;99.90
6520;DHT22;3293;51.690;5.982;2023-02-28T21:11:42;-0.60;99.90
6520;DHT22;3293;51.690;5.982;2023-02-28T21:16:43;-0.60;99.90
6520;DHT22;3293;51.690;5.982;2023-02-28T21:21:44;-0.70;99.90
6520;DHT22;3293;51.690;5.982;2023-02-28T21:26:46;-0.70;99.90
6520;DHT22;3293;51.690;5.982;2023-02-28T21:31:49;-0.70;99.90
6520;DHT22;3293;51.690;5.982;2023-02-28T21:36:50;-0.60;99.90
6520;DHT22;3293;51.690;5.982;2023-02-28T21:41:51;-0.50;99.90
6520;DHT22;3293;51.690;5.982;2023-02-28T21:46:51;-0.40;99.90
6520;DHT22;3293;51.690;5.982;2023-02-28T21:51:56;-0.30;99.90
6520;DHT22;3293;51.690;5.982;2023-02-28T21:56:56;-0.30;99.90
6520;DHT22;3293;51.690;5.982;2023-02-28T22:01:56;-0.40;99.90
6520;DHT22;3293;51.690;5.982;2023-02-28T22:06:56;-0.40;99.90
6520;DHT22;3293;51.690;5.982;2023-02-28T22:11:57;-0.30;99.90
6520;DHT22;3293;51.690;5.982;2023-02-28T22:16:57;-0.30;99.90
6520;DHT22;3293;51.690;5.982;2023-02-28T22:21:57;-0.30;99.90
6520;DHT22;3293;51.690;5.982;2023-02-28T22:26:57;-0.20;99.90
6520;DHT22;3293;51.690;5.982;2023-02-28T22:31:57;-0.10;99.90
6520;DHT22;3293;51.690;5.982;2023-02-28T22:36:57;0.10;99.90
6520;DHT22;3293;51.690;5.982;2023-02-28T22:41:58;0.10;99.90
6520;DHT22;3293;51.690;5.982;2023-02-28T22:46:58;0.20;99.90
6520;DHT22;3293;51.690;5.982;2023-02-28T22:51:58;0.20;99.90
6520;DHT22;3293;51.690;5.982;2023-02-28T22:56:58;0.20;99.90
6520;DHT22;3293;51.690;5.982;2023-02-28T23:01:58;0.20;99.90
6520;DHT22;3293;51.690;5.982;2023-02-28T23:06:58;0.20;99.90
6520;DHT22;3293;51.690;5.982;2023-02-28T23:11:58;0.20;99.90
6520;DHT22;3293;51.690;5.982;2023-02-28T23:16:58;0.00;99.90
6520;DHT22;3293;51.690;5.982;2023-02-28T23:21:59;0.00;99.90
6520;DHT22;3293;51.690;5.982;2023-02-28T23:27:02;-0.20;99.90
6520;DHT22;3293;51.690;5.982;2023-02-28T23:32:03;-0.30;99.90
6520;DHT22;3293;51.690;5.982;2023-02-28T23:37:04;-0.50;99.90
6520;DHT22;3293;51.690;5.982;2023-02-28T23:42:04;-0.70;99.90
6520;DHT22;3293;51.690;5.982;2023-02-28T23:47:04;-0.90;99.90
6520;DHT22;3293;51.690;5.982;2023-02-28T23:52:05;-1.00;99.90
6520;DHT22;3293;51.690;5.982;2023-02-28T23:57:05;-1.10;99.90
